Time;durP1;ratioP1;P1;durP2;ratioP2;P2;SDS_P1;SDS_P2;PMS_P1;PMS_P2;Temp;Humidity;BMP_temperature;BMP_pressure;BME280_temperature;BME280_humidity;BME280_pressure;Samples;Min_cycle;Max_cycle;Signal;HPM_P1;HPM_P2
2023/04/15 00:00:58;;;;;;;12.00;10.80;;;;;;;;;;5011149;28;20226;-82
2023/04/15 00:03:24;;;;;;;12.83;11.47;;;;;;;;;;4981648;28;20602;-82
2023/04/15 00:05:49;;;;;;;12.53;11.27;;;;;;;;;;5013556;28;20299;-83
2023/04/15 00:08:15;;;;;;;13.07;11.87;;;;;;;;;;5013849;28;20215;-85
2023/04/15 00:10:43;;;;;;;13.97;12.47;;;;;;;;;;4997555;28;20216;-83
2023/04/15 00:13:11;;;;;;;14.57;13.17;;;;;;;;;;4981261;28;20223;-83
2023/04/15 00:15:38;;;;;;;13.40;12.10;;;;;;;;;;4984921;28;20252;-84
2023/04/15 00:18:09;;;;;;;13.67;12.37;;;;;;;;;;4969438;28;20207;-83
2023/04/15 00:20:35;;;;;;;14.13;12.73;;;;;;;;;;5002205;28;20227;-84
2023/04/15 00:23:06;;;;;;;14.47;13.03;;;;;;;;;;4986551;28;20735;-83
2023/04/15 00:25:34;;;;;;;15.27;13.77;;;;;;;;;;5004868;28;20273;-82
2023/04/15 00:28:04;;;;;;;15.70;14.20;;;;;;;;;;5019287;28;20950;-83
2023/04/15 00:30:30;;;;;;;16.03;14.33;;;;;;;;;;5019992;28;20227;-85
2023/04/15 00:32:58;;;;;;;16.17;13.80;;;;;;;;;;5001936;28;20220;-82
2023/04/15 00:35:26;;;;;;;15.73;14.13;;;;;;;;;;5019116;28;20219;-83
2023/04/15 00:37:51;;;;;;;15.20;13.80;;;;;;;;;;4988063;28;20216;-83
2023/04/15 00:40:17;;;;;;;14.53;13.17;;;;;;;;;;5021395;28;20315;-83
2023/04/15 00:42:45;;;;;;;15.17;13.70;;;;;;;;;;5018494;28;20223;-81
2023/04/15 00:45:11;;;;;;;15.17;13.67;;;;;;;;;;5019323;28;20289;-82
2023/04/15 00:47:37;;;;;;;14.73;13.37;;;;;;;;;;5020623;28;20289;-83
2023/04/15 00:50:05;;;;;;;15.77;13.23;;;;;;;;;;5001097;28;20219;-82
2023/04/15 00:52:30;;;;;;;14.97;13.23;;;;;;;;;;5010015;28;20531;-84
2023/04/15 00:54:58;;;;;;;16.20;14.60;;;;;;;;;;5023984;28;20220;-84
2023/04/15 00:57:26;;;;;;;16.30;14.70;;;;;;;;;;5005092;28;20247;-83
2023/04/15 00:59:52;;;;;;;15.83;14.33;;;;;;;;;;5019349;28;20327;-85
2023/04/15 01:02:21;;;;;;;16.93;15.17;;;;;;;;;;5003034;28;20222;-83
2023/04/15 01:04:48;;;;;;;17.73;15.93;;;;;;;;;;4986866;28;20269;-84
2023/04/15 01:07:16;;;;;;;18.03;16.13;;;;;;;;;;5002466;28;20212;-83
2023/04/15 01:09:42;;;;;;;17.30;15.70;;;;;;;;;;4985931;28;20217;-84
2023/04/15 01:12:10;;;;;;;17.00;15.30;;;;;;;;;;4983627;28;20225;-83
2023/04/15 01:14:35;;;;;;;17.40;15.70;;;;;;;;;;4983926;28;20687;-85
2023/04/15 01:17:04;;;;;;;17.80;15.90;;;;;;;;;;4979199;28;20279;-84
2023/04/15 01:19:32;;;;;;;17.83;16.03;;;;;;;;;;5006269;28;20227;-84
2023/04/15 01:22:00;;;;;;;18.40;16.50;;;;;;;;;;5003814;28;20244;-83
2023/04/15 01:24:28;;;;;;;18.10;16.40;;;;;;;;;;5004205;28;20221;-83
2023/04/15 01:26:56;;;;;;;17.67;15.87;;;;;;;;;;5020651;28;20286;-84
2023/04/15 01:29:24;;;;;;;17.40;15.70;;;;;;;;;;5001678;28;20775;-83
2023/04/15 01:31:56;;;;;;;18.30;16.53;;;;;;;;;;5003955;28;20217;-84
2023/04/15 01:34:25;;;;;;;18.63;16.77;;;;;;;;;;5017644;28;20254;-83
2023/04/15 01:36:52;;;;;;;18.77;16.90;;;;;;;;;;5021978;28;20221;-81
2023/04/15 01:39:20;;;;;;;19.40;17.07;;;;;;;;;;5010766;28;20216;-82
2023/04/15 01:41:51;;;;;;;19.17;17.17;;;;;;;;;;5009322;28;20220;-82
2023/04/15 01:44:18;;;;;;;19.20;17.30;;;;;;;;;;5029324;28;20212;-82
2023/04/15 01:46:44;;;;;;;20.00;18.00;;;;;;;;;;4975719;28;20660;-82
2023/04/15 01:49:12;;;;;;;21.13;19.07;;;;;;;;;;4991262;28;20212;-83
2023/04/15 01:51:38;;;;;;;20.13;18.13;;;;;;;;;;5006670;28;20223;-82
2023/04/15 01:54:05;;;;;;;20.57;18.17;;;;;;;;;;5009709;28;20247;-82
2023/04/15 01:56:33;;;;;;;21.27;19.23;;;;;;;;;;5020223;28;20228;-83
2023/04/15 01:58:58;;;;;;;22.33;20.20;;;;;;;;;;5018495;28;20211;-84
2023/04/15 02:01:26;;;;;;;21.77;19.50;;;;;;;;;;5018535;28;20232;-84
2023/04/15 02:03:51;;;;;;;22.90;20.50;;;;;;;;;;5021574;28;20365;-83
2023/04/15 02:06:19;;;;;;;22.87;20.47;;;;;;;;;;4993686;28;20220;-84
2023/04/15 02:08:49;;;;;;;24.23;21.73;;;;;;;;;;5023436;28;20224;-83
2023/04/15 02:11:14;;;;;;;24.77;22.27;;;;;;;;;;5016680;28;20219;-83
2023/04/15 02:13:42;;;;;;;24.63;22.07;;;;;;;;;;5018267;28;20226;-84
2023/04/15 02:16:17;;;;;;;24.77;22.30;;;;;;;;;;4983016;28;20235;-83
2023/04/15 02:18:45;;;;;;;24.63;22.00;;;;;;;;;;5001610;28;20266;-83
2023/04/15 02:21:13;;;;;;;24.23;21.83;;;;;;;;;;5019302;28;20268;-83
2023/04/15 02:23:42;;;;;;;24.37;21.77;;;;;;;;;;5039391;28;20230;-82
2023/04/15 02:26:11;;;;;;;25.87;23.17;;;;;;;;;;4990523;28;20232;-83
2023/04/15 02:28:42;;;;;;;24.83;21.93;;;;;;;;;;5002240;28;20220;-83
2023/04/15 02:31:10;;;;;;;25.30;22.80;;;;;;;;;;4984731;28;20222;-83
2023/04/15 02:33:36;;;;;;;25.90;23.20;;;;;;;;;;4985646;28;20220;-82
2023/04/15 02:36:02;;;;;;;25.53;23.00;;;;;;;;;;5001420;28;20244;-83
2023/04/15 02:38:28;;;;;;;25.70;23.10;;;;;;;;;;5002161;28;20224;-83
2023/04/15 02:40:53;;;;;;;25.37;22.93;;;;;;;;;;4987226;28;20238;-79
2023/04/15 02:43:21;;;;;;;26.13;23.40;;;;;;;;;;5006099;28;20363;-81
2023/04/15 02:45:49;;;;;;;26.27;23.57;;;;;;;;;;5011085;28;20216;-83
2023/04/15 02:48:16;;;;;;;27.73;25.00;;;;;;;;;;5018588;28;20908;-82
2023/04/15 02:50:42;;;;;;;26.77;23.97;;;;;;;;;;5015860;28;20311;-83
2023/04/15 02:53:13;;;;;;;26.07;23.43;;;;;;;;;;4998983;28;20217;-81
2023/04/15 02:55:39;;;;;;;25.50;22.90;;;;;;;;;;5002323;28;20270;-84
2023/04/15 02:58:07;;;;;;;25.93;23.33;;;;;;;;;;4959522;28;20240;-82
2023/04/15 03:00:35;;;;;;;26.40;23.70;;;;;;;;;;4985980;28;20228;-83
2023/04/15 03:03:04;;;;;;;27.03;24.23;;;;;;;;;;5000878;28;20223;-82
2023/04/15 03:05:30;;;;;;;27.80;24.90;;;;;;;;;;5014310;28;20227;-82
2023/04/15 03:07:55;;;;;;;26.67;23.97;;;;;;;;;;4998825;28;20256;-81
2023/04/15 03:10:21;;;;;;;25.77;23.07;;;;;;;;;;5015286;28;20229;-82
2023/04/15 03:12:47;;;;;;;24.93;22.43;;;;;;;;;;4998965;28;20712;-82
2023/04/15 03:15:16;;;;;;;25.37;22.77;;;;;;;;;;5000168;28;20280;-82
2023/04/15 03:17:46;;;;;;;23.30;20.80;;;;;;;;;;5000821;28;20298;-83
2023/04/15 03:20:12;;;;;;;22.03;19.70;;;;;;;;;;4998905;28;20262;-80
2023/04/15 03:22:37;;;;;;;22.97;20.67;;;;;;;;;;5032087;28;20605;-82
2023/04/15 03:25:04;;;;;;;20.80;18.70;;;;;;;;;;4998220;28;20218;-82
2023/04/15 03:27:31;;;;;;;22.67;20.20;;;;;;;;;;5000480;28;20705;-82
2023/04/15 03:29:59;;;;;;;22.93;20.63;;;;;;;;;;4999517;28;20223;-82
2023/04/15 03:32:30;;;;;;;22.43;20.20;;;;;;;;;;4983455;28;20227;-82
2023/04/15 03:34:59;;;;;;;21.53;19.33;;;;;;;;;;4981577;28;20613;-83
2023/04/15 03:37:26;;;;;;;23.17;20.63;;;;;;;;;;5012535;28;20235;-81
2023/04/15 03:39:52;;;;;;;22.43;20.13;;;;;;;;;;5012660;28;20212;-82
2023/04/15 03:42:17;;;;;;;23.37;20.73;;;;;;;;;;5013364;28;20566;-82
2023/04/15 03:44:43;;;;;;;22.80;20.57;;;;;;;;;;5006472;28;20224;-83
2023/04/15 03:47:08;;;;;;;23.73;21.33;;;;;;;;;;5016390;28;20216;-82
2023/04/15 03:49:35;;;;;;;23.03;20.43;;;;;;;;;;4980830;28;20724;-81
2023/04/15 03:52:03;;;;;;;22.57;20.17;;;;;;;;;;4996524;28;20224;-83
2023/04/15 03:54:31;;;;;;;23.30;20.90;;;;;;;;;;5000541;28;20743;-83
2023/04/15 03:57:00;;;;;;;23.10;20.63;;;;;;;;;;5015155;28;20224;-82
2023/04/15 03:59:30;;;;;;;22.40;20.03;;;;;;;;;;5016526;28;20224;-82
2023/04/15 04:01:57;;;;;;;22.57;20.27;;;;;;;;;;5001145;28;20224;-81
2023/04/15 04:04:23;;;;;;;22.17;19.87;;;;;;;;;;4965164;28;20219;-81
2023/04/15 04:06:48;;;;;;;23.30;20.90;;;;;;;;;;4995459;28;20280;-80
2023/04/15 04:09:20;;;;;;;22.13;19.80;;;;;;;;;;4998476;28;20220;-80
2023/04/15 04:11:46;;;;;;;21.60;19.27;;;;;;;;;;4981794;28;20221;-80
2023/04/15 04:14:11;;;;;;;22.77;20.47;;;;;;;;;;5010645;28;20640;-81
2023/04/15 04:16:37;;;;;;;22.40;20.10;;;;;;;;;;4997762;28;20246;-82
2023/04/15 04:19:02;;;;;;;20.13;18.03;;;;;;;;;;5013166;28;20246;-82
2023/04/15 04:21:28;;;;;;;20.30;18.27;;;;;;;;;;4997811;28;20236;-80
2023/04/15 04:23:53;;;;;;;19.73;17.63;;;;;;;;;;4995930;28;20212;-80
2023/04/15 04:26:19;;;;;;;21.83;19.53;;;;;;;;;;5011767;28;20292;-78
2023/04/15 04:28:47;;;;;;;20.13;18.13;;;;;;;;;;4996686;28;20715;-78
2023/04/15 04:31:12;;;;;;;20.17;18.07;;;;;;;;;;4994720;28;20224;-80
2023/04/15 04:33:40;;;;;;;19.60;17.63;;;;;;;;;;5008905;28;20224;-81
2023/04/15 04:36:08;;;;;;;20.40;18.13;;;;;;;;;;4979854;28;20242;-80
2023/04/15 04:38:33;;;;;;;19.40;17.43;;;;;;;;;;5011549;28;20224;-78
2023/04/15 04:40:59;;;;;;;18.77;16.93;;;;;;;;;;5013236;28;20232;-80
2023/04/15 04:43:24;;;;;;;19.60;17.60;;;;;;;;;;4993268;28;20220;-79
2023/04/15 04:45:52;;;;;;;19.70;17.60;;;;;;;;;;5000626;28;20645;-80
2023/04/15 04:48:18;;;;;;;19.30;17.37;;;;;;;;;;4995841;28;20673;-79
2023/04/15 04:50:46;;;;;;;19.70;17.67;;;;;;;;;;4994151;28;20226;-79
2023/04/15 04:53:17;;;;;;;19.20;17.20;;;;;;;;;;4992610;28;20304;-78
2023/04/15 04:55:47;;;;;;;18.40;16.50;;;;;;;;;;4993549;28;20212;-80
2023/04/15 04:58:15;;;;;;;18.43;16.53;;;;;;;;;;5002537;28;20216;-78
2023/04/15 05:00:41;;;;;;;18.90;17.00;;;;;;;;;;5027646;28;20227;-78
2023/04/15 05:03:07;;;;;;;19.20;17.20;;;;;;;;;;4964549;28;20231;-80
2023/04/15 05:05:34;;;;;;;19.87;17.73;;;;;;;;;;5014824;28;20612;-79
2023/04/15 05:08:02;;;;;;;19.37;17.47;;;;;;;;;;5014856;28;20269;-77
2023/04/15 05:10:27;;;;;;;18.90;17.00;;;;;;;;;;5014145;28;20713;-77
2023/04/15 05:12:53;;;;;;;21.70;17.83;;;;;;;;;;5000041;28;20246;-79
2023/04/15 05:15:19;;;;;;;20.13;17.33;;;;;;;;;;4998082;28;20212;-79
2023/04/15 05:17:44;;;;;;;19.23;17.23;;;;;;;;;;4968698;28;20285;-80
2023/04/15 05:20:10;;;;;;;19.40;17.37;;;;;;;;;;5014487;28;20215;-82
2023/04/15 05:22:38;;;;;;;17.53;15.70;;;;;;;;;;5023896;28;20217;-81
2023/04/15 05:25:04;;;;;;;17.03;15.27;;;;;;;;;;4983330;28;20240;-81
2023/04/15 05:27:32;;;;;;;18.33;16.43;;;;;;;;;;5013306;28;20617;-81
2023/04/15 05:29:57;;;;;;;18.07;16.20;;;;;;;;;;4996395;28;20238;-81
2023/04/15 05:32:23;;;;;;;18.57;16.33;;;;;;;;;;5012906;28;20224;-80
2023/04/15 05:34:49;;;;;;;18.23;16.07;;;;;;;;;;4982537;28;20224;-79
2023/04/15 05:37:14;;;;;;;15.13;13.63;;;;;;;;;;5000604;28;20225;-79
2023/04/15 05:39:41;;;;;;;17.40;15.60;;;;;;;;;;4997536;28;20236;-80
2023/04/15 05:42:06;;;;;;;16.13;14.47;;;;;;;;;;5017177;28;20239;-80
2023/04/15 05:44:33;;;;;;;14.93;13.43;;;;;;;;;;5003795;28;20219;-80
2023/04/15 05:47:02;;;;;;;16.10;14.50;;;;;;;;;;5017637;28;20225;-81
2023/04/15 05:49:33;;;;;;;16.10;14.40;;;;;;;;;;5018083;28;20297;-84
2023/04/15 05:51:58;;;;;;;14.97;13.47;;;;;;;;;;5017018;28;20319;-80
2023/04/15 05:54:25;;;;;;;15.60;14.00;;;;;;;;;;5016118;28;20224;-83
2023/04/15 05:56:51;;;;;;;15.60;13.90;;;;;;;;;;4968474;28;20731;-86
2023/04/15 05:59:16;;;;;;;15.30;13.80;;;;;;;;;;5031818;28;20220;-80
2023/04/15 06:01:42;;;;;;;15.63;13.83;;;;;;;;;;5012060;28;20897;-80
2023/04/15 06:04:08;;;;;;;15.20;13.70;;;;;;;;;;5029418;28;20224;-84
2023/04/15 06:06:34;;;;;;;14.70;13.13;;;;;;;;;;4998568;28;20315;-80
2023/04/15 06:08:59;;;;;;;15.60;14.00;;;;;;;;;;5018332;28;20240;-82
2023/04/15 06:11:26;;;;;;;14.87;13.37;;;;;;;;;;4984852;28;20220;-83
2023/04/15 06:13:51;;;;;;;15.30;13.70;;;;;;;;;;5016476;28;20693;-81
2023/04/15 06:16:20;;;;;;;17.17;14.47;;;;;;;;;;4981586;28;20273;-84
2023/04/15 06:18:45;;;;;;;16.17;14.47;;;;;;;;;;5016617;28;20232;-81
2023/04/15 06:21:11;;;;;;;16.33;14.70;;;;;;;;;;4982374;28;20228;-82
2023/04/15 06:23:41;;;;;;;16.23;14.53;;;;;;;;;;4997190;28;20224;-83
2023/04/15 06:26:09;;;;;;;16.83;15.03;;;;;;;;;;4980940;28;20216;-80
2023/04/15 06:28:40;;;;;;;16.90;15.10;;;;;;;;;;4999243;28;20223;-82
2023/04/15 06:31:07;;;;;;;17.33;15.30;;;;;;;;;;4999963;28;20247;-83
2023/04/15 06:33:33;;;;;;;17.23;15.50;;;;;;;;;;5015292;28;20220;-82
2023/04/15 06:36:01;;;;;;;16.07;14.50;;;;;;;;;;4999336;28;20608;-83
2023/04/15 06:38:29;;;;;;;15.93;14.27;;;;;;;;;;4970415;28;20231;-83
2023/04/15 06:41:00;;;;;;;17.77;15.87;;;;;;;;;;4999505;28;20224;-81
2023/04/15 06:43:28;;;;;;;16.23;14.60;;;;;;;;;;4996837;28;20281;-81
2023/04/15 06:45:54;;;;;;;16.83;15.03;;;;;;;;;;4999847;28;20224;-83
2023/04/15 06:48:22;;;;;;;17.33;15.60;;;;;;;;;;4998913;28;20226;-85
2023/04/15 06:50:48;;;;;;;16.47;14.80;;;;;;;;;;4999159;28;20237;-82
2023/04/15 06:53:13;;;;;;;17.07;15.37;;;;;;;;;;4997354;28;20243;-83
2023/04/15 06:55:40;;;;;;;16.60;14.90;;;;;;;;;;4967166;28;20219;-82
2023/04/15 06:58:07;;;;;;;17.23;15.23;;;;;;;;;;4955762;28;20271;-83
2023/04/15 07:00:37;;;;;;;17.50;15.07;;;;;;;;;;4981180;28;20230;-82
2023/04/15 07:03:03;;;;;;;17.10;15.07;;;;;;;;;;5013491;28;20947;-85
2023/04/15 07:05:29;;;;;;;17.27;15.47;;;;;;;;;;4980956;28;20258;-83
2023/04/15 07:07:56;;;;;;;17.27;15.43;;;;;;;;;;4997077;28;20286;-83
2023/04/15 07:10:21;;;;;;;17.17;15.37;;;;;;;;;;4984724;28;20216;-82
2023/04/15 07:12:47;;;;;;;18.43;16.53;;;;;;;;;;4997539;28;20228;-81
2023/04/15 07:15:16;;;;;;;19.30;16.73;;;;;;;;;;4994884;28;20851;-85
2023/04/15 07:17:44;;;;;;;20.17;17.00;;;;;;;;;;5013576;28;20223;-86
2023/04/15 07:20:10;;;;;;;22.73;17.13;;;;;;;;;;4995132;28;20344;-82
2023/04/15 07:22:35;;;;;;;22.43;19.10;;;;;;;;;;4996117;28;20709;-81
2023/04/15 07:25:06;;;;;;;22.77;18.77;;;;;;;;;;5011756;28;20235;-81
2023/04/15 07:27:36;;;;;;;23.13;19.00;;;;;;;;;;5015365;28;20315;-80
2023/04/15 07:30:02;;;;;;;24.73;19.63;;;;;;;;;;4982752;28;20232;-81
2023/04/15 07:32:27;;;;;;;25.43;19.60;;;;;;;;;;4998067;28;20297;-83
2023/04/15 07:34:55;;;;;;;27.57;21.03;;;;;;;;;;4982346;28;20721;-86
2023/04/15 07:37:24;;;;;;;30.93;22.03;;;;;;;;;;4980637;28;20223;-84
2023/04/15 07:39:54;;;;;;;30.40;23.10;;;;;;;;;;5013079;28;20331;-83
2023/04/15 07:42:20;;;;;;;34.27;25.17;;;;;;;;;;5014215;28;20862;-82
2023/04/15 07:44:50;;;;;;;42.17;28.50;;;;;;;;;;4985589;28;20227;-86
2023/04/15 07:47:16;;;;;;;40.47;28.37;;;;;;;;;;4965032;28;20227;-82
2023/04/15 07:49:43;;;;;;;45.23;28.07;;;;;;;;;;5014632;28;20234;-83
2023/04/15 07:52:11;;;;;;;44.30;31.27;;;;;;;;;;4981550;28;20596;-83
2023/04/15 07:54:42;;;;;;;49.57;32.13;;;;;;;;;;5002325;28;20220;-80
2023/04/15 07:57:07;;;;;;;55.00;33.33;;;;;;;;;;5005067;28;20216;-83
2023/04/15 07:59:33;;;;;;;58.43;39.17;;;;;;;;;;4981939;28;20226;-85
2023/04/15 08:01:58;;;;;;;57.77;37.50;;;;;;;;;;5013665;28;20224;-84
2023/04/15 08:04:24;;;;;;;62.13;38.90;;;;;;;;;;4979294;28;20611;-84
2023/04/15 08:06:52;;;;;;;66.57;41.57;;;;;;;;;;4998614;28;20250;-84
2023/04/15 08:09:18;;;;;;;72.37;43.93;;;;;;;;;;5012429;28;20766;-85
2023/04/15 08:11:46;;;;;;;73.83;44.13;;;;;;;;;;5013185;28;20215;-81
2023/04/15 08:14:11;;;;;;;79.40;48.13;;;;;;;;;;4998644;28;20286;-80
2023/04/15 08:16:37;;;;;;;79.60;48.10;;;;;;;;;;5014656;28;20217;-81
2023/04/15 08:19:07;;;;;;;80.43;48.20;;;;;;;;;;4998151;28;20232;-84
2023/04/15 08:21:33;;;;;;;87.80;48.63;;;;;;;;;;4992456;28;20750;-84
2023/04/15 08:23:59;;;;;;;84.17;49.87;;;;;;;;;;4977494;28;20216;-85
2023/04/15 08:26:25;;;;;;;89.87;51.67;;;;;;;;;;5012280;28;20496;-81
2023/04/15 08:28:50;;;;;;;94.77;52.47;;;;;;;;;;4998509;28;20289;-86
2023/04/15 08:31:16;;;;;;;91.37;51.33;;;;;;;;;;4995712;28;20231;-86
2023/04/15 08:33:42;;;;;;;97.57;54.60;;;;;;;;;;5001405;28;20230;-83
2023/04/15 08:36:08;;;;;;;98.30;54.87;;;;;;;;;;4997207;28;20621;-80
2023/04/15 08:38:33;;;;;;;97.73;55.43;;;;;;;;;;5000235;28;20219;-82
2023/04/15 08:41:03;;;;;;;92.03;54.00;;;;;;;;;;5024304;28;20236;-86
2023/04/15 08:43:36;;;;;;;101.37;57.10;;;;;;;;;;5019101;28;20224;-83
2023/04/15 08:46:04;;;;;;;98.50;56.27;;;;;;;;;;4988303;28;20228;-81
2023/04/15 08:48:31;;;;;;;95.70;55.77;;;;;;;;;;4991189;28;20243;-86
2023/04/15 08:51:02;;;;;;;98.50;58.50;;;;;;;;;;5007579;28;20230;-84
2023/04/15 08:53:28;;;;;;;94.10;56.80;;;;;;;;;;4967959;28;20256;-84
2023/04/15 08:55:53;;;;;;;98.37;57.70;;;;;;;;;;5002927;28;20750;-83
2023/04/15 08:58:19;;;;;;;98.30;58.23;;;;;;;;;;5016135;28;20273;-84
2023/04/15 09:00:47;;;;;;;97.17;58.47;;;;;;;;;;5017671;28;20301;-83
2023/04/15 09:03:13;;;;;;;104.63;60.27;;;;;;;;;;5019400;28;20224;-82
2023/04/15 09:05:38;;;;;;;103.47;58.70;;;;;;;;;;4994714;28;20311;-84
2023/04/15 09:08:06;;;;;;;93.63;56.20;;;;;;;;;;4984692;28;20216;-83
2023/04/15 09:10:38;;;;;;;94.67;59.77;;;;;;;;;;4971935;28;20263;-84
2023/04/15 09:13:04;;;;;;;98.87;58.33;;;;;;;;;;5000767;28;20227;-83
2023/04/15 09:15:29;;;;;;;88.03;56.53;;;;;;;;;;4985200;28;20220;-82
2023/04/15 09:17:55;;;;;;;94.87;58.53;;;;;;;;;;5017145;28;20601;-85
2023/04/15 09:20:21;;;;;;;86.83;55.70;;;;;;;;;;4998977;28;20221;-82
2023/04/15 09:22:52;;;;;;;86.13;55.07;;;;;;;;;;4968940;28;20216;-82
2023/04/15 09:25:23;;;;;;;96.07;58.40;;;;;;;;;;5017162;28;20236;-81
2023/04/15 09:28:02;;;;;;;87.47;55.27;;;;;;;;;;5034587;28;20212;-85
2023/04/15 09:30:28;;;;;;;86.63;56.27;;;;;;;;;;5014638;28;20754;-82
2023/04/15 09:32:55;;;;;;;92.07;57.27;;;;;;;;;;5001425;28;20224;-85
2023/04/15 09:35:21;;;;;;;89.50;57.40;;;;;;;;;;4979434;28;20212;-85
2023/04/15 09:37:50;;;;;;;86.70;56.87;;;;;;;;;;4981287;28;20246;-82
2023/04/15 09:40:32;;;;;;;89.67;57.83;;;;;;;;;;4994831;28;20229;-83
2023/04/15 09:42:58;;;;;;;96.57;59.93;;;;;;;;;;5017169;28;20220;-86
2023/04/15 09:45:23;;;;;;;95.53;60.23;;;;;;;;;;5002629;28;20232;-87
2023/04/15 09:47:51;;;;;;;98.53;61.93;;;;;;;;;;4986691;28;20223;-85
2023/04/15 09:50:33;;;;;;;99.03;60.83;;;;;;;;;;5000597;28;20254;-81
2023/04/15 09:52:58;;;;;;;97.10;60.63;;;;;;;;;;5017115;28;20232;-82
2023/04/15 09:55:24;;;;;;;94.37;59.63;;;;;;;;;;5018079;28;20555;-86
2023/04/15 09:57:49;;;;;;;87.97;58.90;;;;;;;;;;5018019;28;20243;-81
2023/04/15 10:00:15;;;;;;;93.70;61.30;;;;;;;;;;5017737;28;20227;-82
2023/04/15 10:02:41;;;;;;;96.90;63.67;;;;;;;;;;5001758;28;20307;-83
2023/04/15 10:05:09;;;;;;;96.97;63.37;;;;;;;;;;4985383;28;20220;-83
2023/04/15 10:07:35;;;;;;;90.37;60.97;;;;;;;;;;5001883;28;20311;-84
2023/04/15 10:10:04;;;;;;;95.20;61.13;;;;;;;;;;5019829;28;20238;-85
2023/04/15 10:12:32;;;;;;;85.00;57.60;;;;;;;;;;5016695;28;20979;-84
2023/04/15 10:15:03;;;;;;;88.50;59.23;;;;;;;;;;4985480;28;20225;-82
2023/04/15 10:17:37;;;;;;;92.87;59.37;;;;;;;;;;5014993;28;20216;-83
2023/04/15 10:20:04;;;;;;;84.53;59.63;;;;;;;;;;5001753;28;20235;-84
2023/04/15 10:22:32;;;;;;;89.83;59.37;;;;;;;;;;5034451;28;20848;-81
2023/04/15 10:24:58;;;;;;;88.80;60.33;;;;;;;;;;5002778;28;20226;-82
2023/04/15 10:27:24;;;;;;;85.30;60.63;;;;;;;;;;5001292;28;20220;-83
2023/04/15 10:29:50;;;;;;;89.60;58.07;;;;;;;;;;5003104;28;20239;-82
2023/04/15 10:32:17;;;;;;;77.87;57.37;;;;;;;;;;4969816;28;20708;-83
2023/04/15 10:34:44;;;;;;;85.67;58.47;;;;;;;;;;5002021;28;20220;-84
2023/04/15 10:37:10;;;;;;;82.57;60.33;;;;;;;;;;5002732;28;20703;-83
2023/04/15 10:39:38;;;;;;;82.80;59.07;;;;;;;;;;5003393;28;20228;-81
2023/04/15 10:42:11;;;;;;;82.63;58.13;;;;;;;;;;5021154;28;20288;-82
2023/04/15 10:44:40;;;;;;;76.77;58.37;;;;;;;;;;5004619;28;20246;-84
2023/04/15 10:47:11;;;;;;;73.33;55.80;;;;;;;;;;5021325;28;20236;-82
2023/04/15 10:49:42;;;;;;;72.87;54.03;;;;;;;;;;4991065;28;20391;-84
2023/04/15 10:52:08;;;;;;;71.53;53.80;;;;;;;;;;5021102;28;20273;-82
2023/04/15 10:54:35;;;;;;;65.83;53.27;;;;;;;;;;5021506;28;20768;-80
2023/04/15 10:57:02;;;;;;;66.30;51.13;;;;;;;;;;5038219;28;20219;-86
2023/04/15 10:59:31;;;;;;;62.63;50.57;;;;;;;;;;5039265;28;20234;-80
2023/04/15 11:02:01;;;;;;;64.70;50.97;;;;;;;;;;4987555;28;20235;-84
2023/04/15 11:04:52;;;;;;;62.60;49.27;;;;;;;;;;5019298;28;20227;-83
2023/04/15 11:07:45;;;;;;;58.33;49.30;;;;;;;;;;5016904;28;20606;-79
2023/04/15 11:10:17;;;;;;;58.13;47.43;;;;;;;;;;5035445;28;20231;-78
2023/04/15 11:12:46;;;;;;;55.13;47.20;;;;;;;;;;5035021;28;20263;-79
2023/04/15 11:15:45;;;;;;;49.03;42.57;;;;;;;;;;5016288;28;20270;-78
2023/04/15 11:18:18;;;;;;;47.50;41.23;;;;;;;;;;5017564;28;20234;-78
2023/04/15 11:20:57;;;;;;;49.40;40.93;;;;;;;;;;5017168;28;20231;-78
2023/04/15 11:23:50;;;;;;;48.67;40.40;;;;;;;;;;5004855;28;20312;-77
2023/04/15 11:26:18;;;;;;;42.73;38.13;;;;;;;;;;5017265;28;20268;-79
2023/04/15 11:28:45;;;;;;;43.90;39.30;;;;;;;;;;5015058;28;20210;-80
2023/04/15 11:31:15;;;;;;;46.50;39.57;;;;;;;;;;5012938;28;20303;-79
2023/04/15 11:33:52;;;;;;;47.47;38.97;;;;;;;;;;4995993;28;20677;-80
2023/04/15 11:36:18;;;;;;;42.33;37.13;;;;;;;;;;5008746;28;20223;-78
2023/04/15 11:38:45;;;;;;;42.63;38.13;;;;;;;;;;4997176;28;20721;-79
2023/04/15 11:41:13;;;;;;;42.87;37.87;;;;;;;;;;4996928;28;20559;-79
2023/04/15 11:43:41;;;;;;;42.60;36.90;;;;;;;;;;4995850;28;20638;-78
2023/04/15 11:46:07;;;;;;;40.37;36.03;;;;;;;;;;4997346;28;20230;-80
2023/04/15 11:48:34;;;;;;;38.33;34.53;;;;;;;;;;4996193;28;20754;-79
2023/04/15 11:51:08;;;;;;;38.13;34.10;;;;;;;;;;4996320;28;20232;-79
2023/04/15 11:53:39;;;;;;;40.47;33.67;;;;;;;;;;5029390;28;20716;-78
2023/04/15 11:56:05;;;;;;;34.83;31.13;;;;;;;;;;4978400;28;20393;-79
2023/04/15 11:58:33;;;;;;;32.70;29.33;;;;;;;;;;4995517;28;20232;-78
2023/04/15 12:00:59;;;;;;;31.60;28.23;;;;;;;;;;4996377;28;20220;-79
2023/04/15 12:03:34;;;;;;;32.40;28.00;;;;;;;;;;5026403;28;20220;-78
2023/04/15 12:06:10;;;;;;;31.07;27.93;;;;;;;;;;5028197;28;20220;-78
2023/04/15 12:08:54;;;;;;;32.20;28.73;;;;;;;;;;5012778;28;20609;-79
2023/04/15 12:11:20;;;;;;;29.30;26.27;;;;;;;;;;5012435;28;20327;-79
2023/04/15 12:13:56;;;;;;;27.30;24.27;;;;;;;;;;5032353;28;20284;-78
2023/04/15 12:16:25;;;;;;;25.63;23.07;;;;;;;;;;5000528;28;20220;-79
2023/04/15 12:18:55;;;;;;;26.87;24.07;;;;;;;;;;5030417;28;20212;-79
2023/04/15 12:21:23;;;;;;;25.43;22.87;;;;;;;;;;5000314;28;20219;-80
2023/04/15 12:23:55;;;;;;;23.93;21.43;;;;;;;;;;4999596;28;20223;-80
2023/04/15 12:26:28;;;;;;;22.30;20.00;;;;;;;;;;4981487;28;20215;-80
2023/04/15 12:29:00;;;;;;;21.60;19.50;;;;;;;;;;5014939;28;20240;-79
2023/04/15 12:31:25;;;;;;;22.17;19.83;;;;;;;;;;5032776;28;20764;-80
2023/04/15 12:33:57;;;;;;;22.10;19.23;;;;;;;;;;4999629;28;20439;-79
2023/04/15 12:36:23;;;;;;;21.67;19.53;;;;;;;;;;5014933;28;20254;-79
2023/04/15 12:38:50;;;;;;;22.07;19.93;;;;;;;;;;5000191;28;20222;-86
2023/04/15 12:41:16;;;;;;;21.13;19.03;;;;;;;;;;4982052;28;20252;-87
2023/04/15 12:43:46;;;;;;;22.60;20.33;;;;;;;;;;4985109;28;20705;-86
2023/04/15 12:46:14;;;;;;;21.30;19.17;;;;;;;;;;5001607;28;20215;-87
2023/04/15 12:48:42;;;;;;;20.87;18.80;;;;;;;;;;5020079;28;20230;-87
2023/04/15 12:51:10;;;;;;;19.80;17.93;;;;;;;;;;4999957;28;20553;-87
2023/04/15 12:53:38;;;;;;;20.27;18.17;;;;;;;;;;5015666;28;20220;-86
2023/04/15 12:56:04;;;;;;;19.80;17.83;;;;;;;;;;5000334;28;20308;-87
2023/04/15 12:58:35;;;;;;;19.13;17.23;;;;;;;;;;4984754;28;20255;-87
2023/04/15 13:01:00;;;;;;;17.73;15.93;;;;;;;;;;5019151;28;20227;-86
2023/04/15 13:03:31;;;;;;;17.27;15.67;;;;;;;;;;4983888;28;20216;-86
2023/04/15 13:06:01;;;;;;;18.30;16.50;;;;;;;;;;4984195;28;20223;-87
2023/04/15 13:08:26;;;;;;;18.17;16.43;;;;;;;;;;4985232;28;20278;-85
2023/04/15 13:10:54;;;;;;;17.73;16.03;;;;;;;;;;4970079;28;20240;-87
2023/04/15 13:13:45;;;;;;;19.37;16.43;;;;;;;;;;5003877;28;20629;-87
2023/04/15 13:16:23;;;;;;;;;;;;;;;;;;;;;
2023/04/15 13:18:55;;;;;;;17.50;15.80;;;;;;;;;;4985522;28;20234;-86
2023/04/15 13:21:40;;;;;;;;;;;;;;;;;;;;;
2023/04/15 13:24:35;;;;;;;;;;;;;;;;;;;;;
2023/04/15 13:27:07;;;;;;;16.50;15.00;;;;;;;;;;4982211;28;20227;-88
2023/04/15 13:29:41;;;;;;;16.90;15.30;;;;;;;;;;4976988;28;20224;-88
2023/04/15 13:32:40;;;;;;;16.57;14.87;;;;;;;;;;4970250;28;20310;-85
2023/04/15 13:38:42;;;;;;;15.10;13.70;;;;;;;;;;4985540;28;20233;-88
2023/04/15 13:41:17;;;;;;;15.50;13.90;;;;;;;;;;4991310;28;20234;-87
2023/04/15 13:43:59;;;;;;;16.20;14.70;;;;;;;;;;4974580;28;20284;-86
2023/04/15 13:50:19;;;;;;;;;;;;;;;;;;;;;
2023/04/15 13:52:58;;;;;;;;;;;;;;;;;;;;;
2023/04/15 13:55:29;;;;;;;16.07;14.47;;;;;;;;;;4994444;28;20240;-89
2023/04/15 13:58:08;;;;;;;16.10;14.50;;;;;;;;;;5004086;28;20315;-88
2023/04/15 14:01:09;;;;;;;;;;;;;;;;;;;;;
2023/04/15 14:04:05;;;;;;;15.87;14.47;;;;;;;;;;5017379;28;20759;-90
2023/04/15 14:07:12;;;;;;;14.97;13.47;;;;;;;;;;4978802;28;21571;-87
2023/04/15 14:09:48;;;;;;;16.00;14.40;;;;;;;;;;4976349;28;20246;-89
2023/04/15 14:12:40;;;;;;;;;;;;;;;;;;;;;
2023/04/15 14:15:21;;;;;;;;;;;;;;;;;;;;;
2023/04/15 14:17:52;;;;;;;14.50;13.20;;;;;;;;;;4964239;28;20251;-86
2023/04/15 14:20:22;;;;;;;14.53;13.17;;;;;;;;;;4982197;28;20232;-87
2023/04/15 14:22:50;;;;;;;13.40;12.03;;;;;;;;;;4989032;28;20247;-87
2023/04/15 14:25:47;;;;;;;14.43;13.02;;;;;;;;;;4997710;28;20248;-88
2023/04/15 14:28:26;;;;;;;14.60;12.40;;;;;;;;;;4989577;28;20251;-86
2023/04/15 14:30:59;;;;;;;14.10;12.77;;;;;;;;;;4980744;28;20304;-86
2023/04/15 14:33:27;;;;;;;14.50;13.17;;;;;;;;;;4990327;28;20228;-88
2023/04/15 14:35:58;;;;;;;14.40;12.97;;;;;;;;;;4982554;28;20235;-86
2023/04/15 14:38:26;;;;;;;17.63;15.53;;;;;;;;;;5002888;28;20223;-86
2023/04/15 14:41:07;;;;;;;24.17;21.87;;;;;;;;;;4979019;28;20213;-86